Overview Statistics Trail Chart Weather Telemetry Raw packets
 

This is the latest recevied weather packets stored in our database for station/object KG5VSR. If no packets are shown the sender has not sent any weather packets the latest 10 day(s).

<< 8 9 10 11 12 13 14 >>
Time Temp. Humidity Pressure Rain* Wind** Luminosity Snow
1788244749 30.56° C 60% 1016.3 hPa 0 mm - 0 W/m² -
1788242947 30.56° C 58% 1016 hPa 0 mm - 0 W/m² -
1788241145 31.11° C 56% 1015.9 hPa 0 mm - 0 W/m² -
1788239344 30.56° C 55% 1015.6 hPa 0 mm - 0 W/m² -
1788237538 30° C 58% 1015.5 hPa 0 mm - 0 W/m² -
1788235736 29.44° C 60% 1015.2 hPa 0 mm - 0 W/m² -
1788233935 30° C 58% 1015.2 hPa 0 mm - 0 W/m² -
1788232134 30.56° C 53% 1015.2 hPa 0 mm - 0 W/m² -
1788230334 31.67° C 51% 1014.7 hPa 0 mm - 0 W/m² -
1788228529 32.22° C 48% 1014.5 hPa 0 mm - 0 W/m² -
1788226729 33.33° C 45% 1014.1 hPa 0 mm - 0 W/m² -
1788224934 34.44° C 42% 1013.8 hPa 0 mm - 0 W/m² -
1788223124 35.56° C 38% 1013.6 hPa 0 mm - 8 W/m² -
1788221320 36.67° C 37% 1013.6 hPa 0 mm - 33 W/m² -
1788219518 37.22° C 36% 1013.7 hPa 0 mm - 42 W/m² -
1788217715 37.22° C 35% 1013.6 hPa 0 mm - 156 W/m² -
1788215913 37.78° C 35% 1013.8 hPa 0 mm - 267 W/m² -
1788214109 37.78° C 37% 1014.4 hPa 0 mm - 349 W/m² -
1788212308 36.11° C 39% 1014.5 hPa 0 mm - 416 W/m² -
1788210507 36.67° C 38% 1015 hPa 0 mm - 106 W/m² -
1788208704 38.33° C 35% 1015.1 hPa 0 mm - 639 W/m² -
1788206899 38.89° C 37% 1015.5 hPa 0 mm - 162 W/m² -
1788205097 37.78° C 40% 1015.8 hPa 0 mm - 197 W/m² -
1788203294 37.22° C 39% 1016.3 hPa 0 mm - 744 W/m² -
1788201490 37.78° C 40% 1016.6 hPa 0 mm - 772 W/m² -

* Rain latest hour (hover to see other rain measurements)
** Current wind speed in m/s (hover to see current wind gust speed)